Time;durP1;ratioP1;P1;durP2;ratioP2;P2;SDS_P1;SDS_P2;PMS_P1;PMS_P2;Temp;Humidity;BMP_temperature;BMP_pressure;BME280_temperature;BME280_humidity;BME280_pressure;Samples;Min_cycle;Max_cycle;Signal;HPM_P1;HPM_P2
2021/10/31 00:01:30;;;;;;;13.90;6.35;;;;;;;16.36;55.96;102673.72;1718334;83;21066;-54
2021/10/31 00:03:59;;;;;;;13.03;6.53;;;;;;;16.35;56.08;102670.21;1718542;83;21037;-54
2021/10/31 00:06:25;;;;;;;13.48;6.40;;;;;;;16.34;56.06;102667.18;1718094;83;21042;-54
2021/10/31 00:08:52;;;;;;;15.58;7.87;;;;;;;16.33;55.92;102664.55;1718577;83;21006;-54
2021/10/31 00:11:19;;;;;;;15.98;6.40;;;;;;;16.30;55.97;102664.14;1718270;83;21057;-54
2021/10/31 00:13:46;;;;;;;15.28;6.03;;;;;;;16.27;55.94;102659.83;1715658;83;21553;-54
2021/10/31 00:16:13;;;;;;;12.37;6.12;;;;;;;16.24;55.98;102655.92;1718010;83;21022;-54
2021/10/31 00:18:39;;;;;;;22.70;7.25;;;;;;;16.21;56.09;102658.61;1718242;83;21049;-54
2021/10/31 00:21:06;;;;;;;16.45;6.22;;;;;;;16.18;56.08;102656.02;1718795;83;21054;-53
2021/10/31 00:23:32;;;;;;;15.08;6.40;;;;;;;16.19;56.02;102655.58;1718557;83;21026;-53
2021/10/31 00:25:59;;;;;;;13.55;6.33;;;;;;;16.18;55.98;102659.95;1718585;83;20990;-54
2021/10/31 00:28:25;;;;;;;11.90;6.40;;;;;;;16.19;56.12;102660.39;1718123;83;21109;-53
2021/10/31 00:30:52;;;;;;;10.53;6.90;;;;;;;16.17;56.18;102653.42;1723381;82;21089;-53
2021/10/31 00:33:20;;;;;;;12.25;7.40;;;;;;;16.15;56.13;102649.51;1728172;82;21051;-53
2021/10/31 00:35:47;;;;;;;11.15;6.72;;;;;;;16.13;56.20;102649.10;1725537;82;21038;-53
2021/10/31 00:38:14;;;;;;;13.28;6.92;;;;;;;16.10;56.22;102648.70;1730529;82;21007;-53
2021/10/31 00:40:41;;;;;;;11.80;6.33;;;;;;;16.10;56.23;102650.01;1730198;82;21050;-54
2021/10/31 00:43:08;;;;;;;11.28;7.03;;;;;;;16.10;56.29;102656.57;1728782;82;20991;-53
2021/10/31 00:45:34;;;;;;;11.73;6.20;;;;;;;16.09;56.40;102649.57;1727921;82;21050;-53
2021/10/31 00:48:01;;;;;;;14.07;6.90;;;;;;;16.10;56.44;102658.32;1728861;82;21026;-53
2021/10/31 00:50:28;;;;;;;16.65;6.30;;;;;;;16.11;56.54;102652.20;1717035;82;21038;-54
2021/10/31 00:52:54;;;;;;;13.78;6.22;;;;;;;16.12;56.68;102654.79;1728652;82;21095;-54
2021/10/31 00:55:21;;;;;;;16.40;7.53;;;;;;;16.13;56.72;102653.92;1709050;83;21058;-54
2021/10/31 00:57:48;;;;;;;14.13;7.28;;;;;;;16.11;56.84;102649.13;1730373;82;21054;-54
2021/10/31 01:00:15;;;;;;;22.98;7.53;;;;;;;16.10;56.87;102651.31;1730623;82;21027;-53
2021/10/31 01:02:43;;;;;;;15.25;7.70;;;;;;;16.10;56.91;102650.44;1728062;82;21496;-53
2021/10/31 01:05:12;;;;;;;14.53;7.00;;;;;;;16.11;56.95;102645.62;1727564;82;20979;-53
2021/10/31 01:08:21;;;;;;;12.65;7.03;;;;;;;16.12;56.85;102645.59;1727417;82;21003;-54
2021/10/31 01:11:20;;;;;;;12.18;6.95;;;;;;;16.12;56.68;102645.59;1655586;86;21450;-53
2021/10/31 01:14:10;;;;;;;15.35;7.58;;;;;;;16.10;56.60;102648.70;1630542;88;21027;-54
2021/10/31 01:17:23;;;;;;;15.45;7.20;;;;;;;16.08;56.65;102643.91;1632091;88;21059;-53
2021/10/31 01:20:08;;;;;;;9.60;6.33;;;;;;;16.06;56.57;102647.44;1631578;88;21066;-53
2021/10/31 01:23:03;;;;;;;13.43;7.60;;;;;;;16.05;56.56;102644.41;1622524;87;21146;-53
2021/10/31 01:25:53;;;;;;;17.90;8.98;;;;;;;16.04;56.57;102640.91;1617527;88;21071;-54
2021/10/31 01:28:56;;;;;;;15.45;8.38;;;;;;;16.04;56.54;102638.72;1624573;88;21075;-54
2021/10/31 01:31:46;;;;;;;12.78;8.05;;;;;;;16.02;56.61;102633.50;1581415;90;21114;-53
2021/10/31 01:34:21;;;;;;;14.00;7.72;;;;;;;16.01;56.65;102631.75;1586623;90;21076;-54
2021/10/31 01:37:08;;;;;;;12.85;7.70;;;;;;;16.00;56.58;102623.46;1529283;94;21158;-54
2021/10/31 01:39:43;;;;;;;13.53;7.95;;;;;;;15.99;56.61;102628.27;1529156;94;21583;-53
2021/10/31 01:42:23;;;;;;;13.60;7.70;;;;;;;15.98;56.64;102625.68;1519975;94;21088;-54
2021/10/31 01:45:09;;;;;;;12.40;7.90;;;;;;;15.97;56.56;102623.48;1529328;94;21140;-53
2021/10/31 01:48:11;;;;;;;11.15;7.40;;;;;;;15.96;56.55;102615.64;1529282;94;21063;-54
2021/10/31 01:50:45;;;;;;;9.43;6.70;;;;;;;15.94;56.58;102610.42;1437573;98;21144;-54
2021/10/31 01:53:33;;;;;;;9.50;7.03;;;;;;;15.91;56.55;102607.83;1413814;101;21564;-54
2021/10/31 01:56:08;;;;;;;11.12;6.37;;;;;;;15.89;56.52;102610.92;1454024;99;21169;-54
2021/10/31 01:58:41;;;;;;;11.18;6.80;;;;;;;15.87;56.55;102602.64;1461056;97;21594;-54
2021/10/31 02:01:07;;;;;;;11.33;7.80;;;;;;;15.86;56.65;102609.67;1483634;97;21109;-54
2021/10/31 02:03:34;;;;;;;15.35;7.47;;;;;;;15.84;56.68;102607.52;1465497;97;21129;-54
2021/10/31 02:06:00;;;;;;;14.58;7.50;;;;;;;15.82;56.79;102601.85;1483203;97;21182;-54
2021/10/31 02:08:27;;;;;;;10.45;6.47;;;;;;;15.82;56.75;102601.85;1483508;97;21110;-54
2021/10/31 02:10:55;;;;;;;11.60;7.20;;;;;;;15.80;56.62;102594.01;1483531;97;21113;-54
2021/10/31 02:13:26;;;;;;;10.38;6.60;;;;;;;15.80;56.67;102596.64;1461975;97;21154;-54
2021/10/31 02:15:52;;;;;;;17.40;8.05;;;;;;;15.81;56.70;102597.04;1483594;97;21153;-54
2021/10/31 02:18:23;;;;;;;10.50;7.53;;;;;;;15.80;56.65;102594.01;1501757;92;21075;-54
2021/10/31 02:20:55;;;;;;;11.65;7.60;;;;;;;15.79;56.65;102593.57;1551114;91;21074;-54
2021/10/31 02:23:21;;;;;;;13.25;7.67;;;;;;;15.76;56.66;102592.31;1564034;91;21086;-54
2021/10/31 02:25:48;;;;;;;12.23;7.10;;;;;;;15.75;56.71;102587.94;1558529;91;21046;-53
2021/10/31 02:28:14;;;;;;;9.80;7.42;;;;;;;15.76;56.68;102589.69;1558442;91;21086;-54
2021/10/31 02:30:42;;;;;;;9.75;7.45;;;;;;;15.76;56.62;102588.38;1551949;91;21071;-54
2021/10/31 02:33:09;;;;;;;8.90;7.30;;;;;;;15.75;56.58;102590.56;1545728;91;21122;-53
2021/10/31 02:35:35;;;;;;;9.63;7.80;;;;;;;15.74;56.57;102588.84;1524283;93;21109;-54
2021/10/31 02:38:02;;;;;;;12.73;8.03;;;;;;;15.73;56.61;102589.72;1568776;88;21041;-54
2021/10/31 02:40:31;;;;;;;11.15;7.67;;;;;;;15.71;56.62;102594.12;1620727;88;21130;-54
2021/10/31 02:42:58;;;;;;;18.07;8.85;;;;;;;15.70;56.70;102589.78;1620856;88;21066;-54
2021/10/31 02:45:25;;;;;;;12.45;7.97;;;;;;;15.69;56.73;102589.34;1620948;88;21042;-53
2021/10/31 02:47:55;;;;;;;10.45;7.75;;;;;;;15.68;56.79;102582.81;1620522;88;21103;-54
2021/10/31 02:50:27;;;;;;;15.45;8.25;;;;;;;15.67;56.76;102581.94;1620860;88;21019;-54
2021/10/31 02:53:24;;;;;;;10.88;8.15;;;;;;;15.66;56.85;102586.74;1615773;88;21050;-54
2021/10/31 02:56:08;;;;;;;12.53;7.90;;;;;;;15.66;56.88;102587.22;1668424;85;21019;-53
2021/10/31 02:58:52;;;;;;;12.50;7.67;;;;;;;15.64;56.94;102584.59;1674654;85;21658;-53
2021/10/31 03:01:19;;;;;;;13.55;8.05;;;;;;;15.64;56.81;102580.65;1682352;85;21083;-54
2021/10/31 03:03:46;;;;;;;9.93;7.28;;;;;;;15.62;56.84;102580.27;1629870;88;21046;-54
2021/10/31 03:06:14;;;;;;;10.80;8.20;;;;;;;15.62;56.96;102580.27;1677835;85;21043;-54
2021/10/31 03:08:41;;;;;;;9.85;7.37;;;;;;;15.61;56.97;102574.15;1676633;85;21015;-54
2021/10/31 03:11:08;;;;;;;20.08;8.18;;;;;;;15.61;56.97;102575.46;1669404;85;21057;-54
2021/10/31 03:13:36;;;;;;;9.83;7.83;;;;;;;15.61;57.12;102577.20;1680469;85;21026;-54
2021/10/31 03:16:05;;;;;;;11.53;7.33;;;;;;;15.60;57.16;102579.42;1681588;85;21610;-54
2021/10/31 03:18:32;;;;;;;10.32;7.87;;;;;;;15.60;57.11;102584.67;1624287;88;21082;-53
2021/10/31 03:20:59;;;;;;;11.22;7.75;;;;;;;15.58;56.99;102574.17;1680887;85;21070;-54
2021/10/31 03:23:26;;;;;;;10.90;7.47;;;;;;;15.58;56.97;102574.17;1628978;88;20998;-54
2021/10/31 03:25:52;;;;;;;13.08;8.33;;;;;;;15.57;56.92;102572.45;1679528;85;20999;-54
2021/10/31 03:28:19;;;;;;;12.82;7.37;;;;;;;15.55;56.98;102571.61;1677976;85;20996;-54
2021/10/31 03:30:46;;;;;;;9.73;7.37;;;;;;;15.54;57.12;102570.33;1677411;83;21078;-54
2021/10/31 03:33:13;;;;;;;8.63;7.17;;;;;;;15.50;57.19;102572.10;1684823;85;21028;-54
2021/10/31 03:35:39;;;;;;;7.47;6.58;;;;;;;15.47;57.40;102573.47;1620522;88;21104;-54
2021/10/31 03:38:06;;;;;;;10.80;7.33;;;;;;;15.44;57.42;102570.88;1676543;85;21563;-54
2021/10/31 03:40:33;;;;;;;13.58;7.65;;;;;;;15.44;57.43;102565.63;1675811;85;21027;-53
2021/10/31 03:43:00;;;;;;;8.88;6.87;;;;;;;15.42;57.46;102564.74;1676135;85;21047;-54
2021/10/31 03:45:27;;;;;;;12.88;7.62;;;;;;;15.41;57.55;102557.78;1678800;85;21050;-54
2021/10/31 03:47:53;;;;;;;11.53;6.12;;;;;;;15.41;57.76;102560.41;1622264;88;21539;-54
2021/10/31 03:50:24;;;;;;;10.35;7.60;;;;;;;15.41;57.81;102559.09;1694510;84;21050;-54
2021/10/31 03:52:51;;;;;;;;;;;;;;;15.43;57.76;102558.19;1700430;84;21079;-54
2021/10/31 03:55:18;;;;;;;15.28;7.67;;;;;;;15.42;57.85;102557.78;1698299;84;20100;-54
2021/10/31 03:57:44;;;;;;;12.43;7.10;;;;;;;15.44;57.91;102563.00;1694756;84;21562;-54
2021/10/31 04:00:13;;;;;;;11.43;7.37;;;;;;;15.44;57.87;102561.69;1700880;84;21039;-54
2021/10/31 04:02:40;;;;;;;12.18;7.87;;;;;;;15.46;57.86;102562.53;1699751;84;21039;-54
2021/10/31 04:05:08;;;;;;;9.78;6.78;;;;;;;15.46;57.72;102556.85;1698773;83;21053;-54
2021/10/31 04:07:35;;;;;;;12.68;7.47;;;;;;;15.47;57.72;102556.42;1700094;83;21031;-54
2021/10/31 04:10:05;;;;;;;11.18;7.42;;;;;;;15.49;57.75;102549.39;1700775;84;21070;-54
2021/10/31 04:12:33;;;;;;;10.50;7.60;;;;;;;15.52;57.74;102550.64;1688244;84;21035;-54
2021/10/31 04:15:00;;;;;;;14.28;8.45;;;;;;;15.55;57.70;102547.12;1696782;84;21106;-54
2021/10/31 04:17:27;;;;;;;13.18;7.47;;;;;;;15.56;57.61;102549.72;1693680;84;21039;-54
2021/10/31 04:19:53;;;;;;;14.30;7.15;;;;;;;15.56;57.54;102548.41;1698129;84;20980;-54
2021/10/31 04:22:20;;;;;;;11.75;7.37;;;;;;;15.59;57.57;102548.81;1698116;84;21010;-54
2021/10/31 04:24:46;;;;;;;14.83;7.67;;;;;;;15.61;57.51;102552.28;1700627;83;21501;-53
2021/10/31 04:27:13;;;;;;;12.88;8.08;;;;;;;15.62;57.50;102541.75;1699291;84;21505;-54
2021/10/31 04:29:39;;;;;;;14.70;8.23;;;;;;;15.64;57.51;102543.91;1699006;84;21534;-54
2021/10/31 04:32:07;;;;;;;13.20;7.33;;;;;;;15.66;57.46;102540.82;1727000;82;20975;-54
2021/10/31 04:34:34;;;;;;;12.25;7.50;;;;;;;15.65;57.30;102531.23;1738632;82;20991;-54
2021/10/31 04:37:02;;;;;;;13.30;7.40;;;;;;;15.67;57.22;102532.51;1738719;82;21082;-54
2021/10/31 04:39:28;;;;;;;12.53;8.10;;;;;;;15.67;57.20;102532.07;1736805;82;21042;-53
2021/10/31 04:42:03;;;;;;;13.22;7.53;;;;;;;15.66;57.13;102529.01;1727973;81;21066;-54
2021/10/31 04:44:24;;;;;;;10.48;7.15;;;;;;;15.65;57.12;102529.04;1732393;82;21537;-54
2021/10/31 04:46:51;;;;;;;12.37;7.65;;;;;;;15.63;57.14;102525.14;1738666;82;21522;-54
2021/10/31 04:49:17;;;;;;;15.50;7.72;;;;;;;15.62;57.13;102524.70;1736769;82;21042;-54
2021/10/31 04:51:43;;;;;;;10.18;6.62;;;;;;;15.62;57.16;102525.16;1737102;82;21109;-54
2021/10/31 04:54:10;;;;;;;13.45;7.50;;;;;;;15.61;57.26;102528.66;1737398;82;21070;-54
2021/10/31 04:56:37;;;;;;;8.63;6.55;;;;;;;15.60;57.26;102530.41;1726632;82;21034;-54
2021/10/31 04:59:03;;;;;;;13.58;7.20;;;;;;;15.60;57.38;102527.79;1736754;81;21009;-54
2021/10/31 05:01:31;;;;;;;14.25;8.28;;;;;;;15.61;57.49;102524.29;1738644;82;20998;-53
2021/10/31 05:03:57;;;;;;;13.68;8.18;;;;;;;15.59;57.62;102514.70;1738126;82;21085;-54
2021/10/31 05:06:25;;;;;;;11.97;7.40;;;;;;;15.62;57.62;102523.38;1735794;82;21011;-54
2021/10/31 05:08:51;;;;;;;8.30;6.70;;;;;;;15.62;57.58;102515.52;1736885;81;21042;-54
2021/10/31 05:11:17;;;;;;;13.03;7.03;;;;;;;15.64;57.51;102522.91;1733185;82;20994;-54
2021/10/31 05:13:46;;;;;;;12.33;8.08;;;;;;;15.67;57.32;102513.70;1735181;82;21030;-53
2021/10/31 05:16:14;;;;;;;10.50;8.48;;;;;;;15.66;57.20;102509.33;1732744;81;21042;-54
2021/10/31 05:18:41;;;;;;;14.35;7.83;;;;;;;15.67;57.06;102511.08;1738345;82;21014;-53
2021/10/31 05:21:07;;;;;;;10.05;7.50;;;;;;;15.68;57.03;102506.70;1735624;82;21006;-54
2021/10/31 05:23:34;;;;;;;11.68;8.28;;;;;;;15.70;56.96;102500.55;1737354;81;20978;-54
2021/10/31 05:26:00;;;;;;;10.82;7.47;;;;;;;15.69;56.94;102501.42;1739302;82;21083;-53
2021/10/31 05:28:28;;;;;;;9.43;7.53;;;;;;;15.69;56.83;102500.11;1738518;82;21034;-54
2021/10/31 05:30:55;;;;;;;15.80;7.87;;;;;;;15.73;56.73;102510.11;1736831;82;21054;-54
2021/10/31 05:33:23;;;;;;;10.70;7.65;;;;;;;15.68;56.85;102504.95;1727347;82;20972;-54
2021/10/31 05:35:52;;;;;;;11.10;7.95;;;;;;;15.69;56.88;102506.67;1727166;82;21070;-54
2021/10/31 05:38:20;;;;;;;9.35;8.05;;;;;;;15.70;56.87;102503.17;1722272;82;21020;-54
2021/10/31 05:40:48;;;;;;;11.28;7.97;;;;;;;15.71;56.87;102503.58;1654182;86;21606;-54
2021/10/31 05:43:15;;;;;;;13.50;7.70;;;;;;;15.74;56.78;102504.86;1653276;86;21035;-54
2021/10/31 05:45:41;;;;;;;9.95;8.10;;;;;;;15.75;56.90;102508.33;1655006;86;21082;-53
2021/10/31 05:48:08;;;;;;;12.85;8.00;;;;;;;15.77;57.03;102508.73;1654596;86;21085;-53
2021/10/31 05:50:35;;;;;;;11.50;7.90;;;;;;;15.83;57.04;102513.89;1653803;86;21034;-54
2021/10/31 05:53:01;;;;;;;12.15;8.28;;;;;;;15.90;56.99;102514.22;1654700;86;21546;-53
2021/10/31 05:55:29;;;;;;;12.58;8.13;;;;;;;15.98;57.04;102514.09;1654721;86;21098;-53
2021/10/31 05:57:56;;;;;;;14.47;9.13;;;;;;;16.09;56.78;102522.67;1654739;86;21521;-52
2021/10/31 06:00:22;;;;;;;12.37;8.48;;;;;;;16.18;56.45;102515.94;1654294;86;21006;-52
2021/10/31 06:02:49;;;;;;;11.80;8.45;;;;;;;16.26;56.20;102516.23;1654305;86;21094;-52
2021/10/31 06:05:16;;;;;;;13.65;9.25;;;;;;;16.34;55.89;102524.44;1654463;86;21018;-52
2021/10/31 06:07:44;;;;;;;11.85;9.50;;;;;;;16.37;55.74;102525.67;1654017;86;21054;-53
2021/10/31 06:10:11;;;;;;;12.80;8.70;;;;;;;16.38;55.51;102533.55;1654362;86;21066;-53
2021/10/31 06:12:43;;;;;;;17.32;9.60;;;;;;;16.38;55.46;102537.94;1631794;87;21035;-53
2021/10/31 06:15:10;;;;;;;12.05;8.88;;;;;;;16.34;55.56;102544.14;1654446;86;21519;-53
2021/10/31 06:17:39;;;;;;;13.50;9.23;;;;;;;16.26;55.79;102554.31;1655012;86;21038;-53
2021/10/31 06:20:12;;;;;;;15.32;8.43;;;;;;;16.24;55.90;102549.53;1649584;86;21093;-53
2021/10/31 06:22:39;;;;;;;18.75;9.53;;;;;;;16.21;55.91;102548.29;1655098;86;21045;-53
2021/10/31 06:25:09;;;;;;;17.37;9.50;;;;;;;16.18;55.97;102543.51;1654774;86;21598;-53
2021/10/31 06:27:35;;;;;;;13.72;9.38;;;;;;;16.15;55.98;102547.08;1654487;86;21067;-52
2021/10/31 06:30:05;;;;;;;15.83;9.95;;;;;;;16.16;56.05;102550.55;1654643;86;21061;-52
2021/10/31 06:32:33;;;;;;;14.23;8.68;;;;;;;16.15;55.71;102547.08;1649492;85;21113;-53
2021/10/31 06:34:59;;;;;;;14.38;9.55;;;;;;;16.14;55.77;102546.64;1642298;87;21570;-52
2021/10/31 06:37:26;;;;;;;13.78;9.03;;;;;;;16.14;55.58;102541.83;1682797;82;21105;-52
2021/10/31 06:39:53;;;;;;;14.45;9.40;;;;;;;16.15;55.55;102543.58;1740470;82;21058;-52
2021/10/31 06:42:19;;;;;;;17.27;9.68;;;;;;;16.15;55.51;102539.20;1734021;81;20963;-53
2021/10/31 06:44:46;;;;;;;13.65;9.73;;;;;;;16.18;55.57;102540.45;1736492;82;20994;-53
2021/10/31 06:47:12;;;;;;;12.95;10.38;;;;;;;16.23;55.60;102524.17;1735333;82;21038;-53
2021/10/31 06:49:42;;;;;;;13.38;10.48;;;;;;;16.31;55.30;102533.23;1727865;82;21019;-53
2021/10/31 06:52:08;;;;;;;14.78;10.43;;;;;;;16.37;55.03;102526.99;1741283;82;21030;-53
2021/10/31 06:54:35;;;;;;;18.50;10.75;;;;;;;16.45;54.69;102527.72;1740493;82;21022;-52
2021/10/31 06:57:03;;;;;;;15.93;10.23;;;;;;;16.53;54.47;102529.80;1739732;82;21471;-52
2021/10/31 06:59:32;;;;;;;13.65;9.78;;;;;;;16.58;54.18;102534.53;1737498;82;21045;-53
2021/10/31 07:01:59;;;;;;;13.22;9.60;;;;;;;16.60;53.82;102528.80;1737354;81;21523;-53
2021/10/31 07:04:29;;;;;;;14.53;9.53;;;;;;;16.61;53.77;102522.19;1737501;81;21057;-53
2021/10/31 07:06:57;;;;;;;14.75;9.73;;;;;;;16.67;53.42;102522.55;1734234;81;21526;-53
2021/10/31 07:09:26;;;;;;;16.07;9.45;;;;;;;16.69;53.05;102518.97;1736193;82;21542;-53
2021/10/31 07:11:53;;;;;;;14.68;10.32;;;;;;;16.73;53.03;102518.48;1740353;82;21038;-53
2021/10/31 07:14:19;;;;;;;17.15;10.50;;;;;;;16.76;52.79;102519.28;1740849;82;20998;-53
2021/10/31 07:16:46;;;;;;;10.85;9.73;;;;;;;16.80;52.56;102518.77;1730065;82;21066;-53
2021/10/31 07:19:13;;;;;;;16.27;10.30;;;;;;;16.81;52.24;102510.88;1738171;81;21026;-53
2021/10/31 07:21:41;;;;;;;18.40;9.73;;;;;;;16.82;52.30;102509.08;1734239;82;20998;-53
2021/10/31 07:24:08;;;;;;;15.13;10.32;;;;;;;16.84;52.30;102509.92;1740569;82;21066;-53
2021/10/31 07:26:35;;;;;;;14.07;8.83;;;;;;;16.84;52.30;102515.17;1739394;82;21023;-53
2021/10/31 07:29:01;;;;;;;11.20;9.05;;;;;;;16.84;52.59;102505.98;1738451;81;20966;-53
2021/10/31 07:31:32;;;;;;;11.85;8.70;;;;;;;16.87;52.71;102513.81;1739515;82;21113;-53
2021/10/31 07:34:00;;;;;;;16.95;9.43;;;;;;;16.91;52.59;102511.55;1733942;82;21014;-53
2021/10/31 07:36:27;;;;;;;12.15;8.68;;;;;;;16.94;52.71;102512.78;1740345;82;21105;-53
2021/10/31 07:38:56;;;;;;;14.70;9.18;;;;;;;16.96;52.86;102507.91;1727850;82;20999;-53
2021/10/31 07:41:23;;;;;;;12.33;8.30;;;;;;;16.97;52.74;102510.11;1735609;81;21087;-53
2021/10/31 07:43:52;;;;;;;11.15;8.40;;;;;;;16.99;52.87;102516.20;1731892;82;21069;-53
2021/10/31 07:46:18;;;;;;;13.72;7.83;;;;;;;16.99;52.82;102502.61;1738697;82;21054;-53
2021/10/31 07:48:45;;;;;;;14.40;8.48;;;;;;;17.02;52.73;102517.47;1734233;82;21026;-53
2021/10/31 07:51:12;;;;;;;16.02;8.53;;;;;;;17.04;52.77;102515.67;1730735;82;21042;-52
2021/10/31 07:53:42;;;;;;;14.23;8.03;;;;;;;17.09;52.55;102513.80;1735274;81;21058;-54
2021/10/31 07:56:14;;;;;;;14.30;8.20;;;;;;;17.12;52.37;102512.88;1735640;82;21040;-54
2021/10/31 07:58:43;;;;;;;11.73;8.35;;;;;;;17.15;52.43;102513.66;1736223;81;21094;-54
2021/10/31 08:01:11;;;;;;;13.65;8.25;;;;;;;17.17;52.48;102506.60;1732114;82;20999;-54
2021/10/31 08:03:42;;;;;;;11.97;8.05;;;;;;;17.20;52.58;102508.31;1738669;82;20998;-54
2021/10/31 08:06:09;;;;;;;13.00;7.78;;;;;;;17.22;52.65;102511.33;1738369;82;21013;-54
2021/10/31 08:08:36;;;;;;;12.73;8.50;;;;;;;17.26;52.65;102506.42;1735243;81;21082;-55
2021/10/31 08:11:04;;;;;;;11.70;8.68;;;;;;;17.28;52.69;102501.11;1736682;81;21109;-54
2021/10/31 08:13:30;;;;;;;13.55;8.28;;;;;;;17.28;52.60;102501.98;1726956;82;21015;-53
2021/10/31 08:15:57;;;;;;;11.65;8.85;;;;;;;17.29;52.52;102505.02;1735622;82;21053;-54
2021/10/31 08:18:24;;;;;;;9.05;7.87;;;;;;;17.30;52.55;102505.45;1735904;82;21027;-54
2021/10/31 08:20:52;;;;;;;12.53;8.40;;;;;;;17.31;52.45;102499.75;1737744;82;20979;-55
2021/10/31 08:23:18;;;;;;;12.65;9.43;;;;;;;17.30;52.52;102507.21;1738446;82;21050;-53
2021/10/31 08:25:46;;;;;;;12.23;8.95;;;;;;;17.30;52.59;102497.56;1738459;82;21058;-54
2021/10/31 08:28:15;;;;;;;14.47;9.28;;;;;;;17.31;52.40;102500.59;1737666;82;21003;-51
2021/10/31 08:30:45;;;;;;;11.05;9.25;;;;;;;17.32;52.35;102501.02;1735510;82;21050;-52
2021/10/31 08:35:46;;;;;;;12.43;9.43;;;;;;;17.30;52.22;102494.92;1696727;83;21078;-52
2021/10/31 08:38:13;;;;;;;15.03;9.55;;;;;;;17.32;52.30;102494.89;1697742;84;21574;-52
2021/10/31 08:40:41;;;;;;;11.93;9.50;;;;;;;17.31;52.28;102498.44;1703211;84;21098;-53
2021/10/31 08:43:09;;;;;;;15.05;10.25;;;;;;;17.29;52.12;102491.86;1694093;84;21049;-53
2021/10/31 08:45:37;;;;;;;11.22;9.88;;;;;;;17.28;51.98;102495.85;1701622;84;21109;-53
2021/10/31 08:48:04;;;;;;;13.25;9.25;;;;;;;17.26;51.88;102494.58;1701098;84;21014;-53
2021/10/31 08:50:31;;;;;;;13.50;10.13;;;;;;;17.25;51.71;102494.15;1688497;84;21027;-53
2021/10/31 08:52:57;;;;;;;17.65;10.05;;;;;;;17.23;51.68;102490.69;1700056;84;21105;-53
2021/10/31 08:55:24;;;;;;;15.60;9.33;;;;;;;17.23;51.70;102493.31;1702625;84;21119;-49
2021/10/31 08:57:50;;;;;;;14.07;10.25;;;;;;;17.19;51.68;102491.66;1698295;84;21112;-51
2021/10/31 09:00:17;;;;;;;16.45;10.20;;;;;;;17.16;51.93;102474.64;1706387;84;21027;-52
2021/10/31 09:02:44;;;;;;;13.53;9.93;;;;;;;17.14;51.89;102479.50;1700912;84;21042;-52
2021/10/31 09:05:11;;;;;;;9.15;7.75;;;;;;;17.10;51.78;102476.09;1696616;84;21113;-54
2021/10/31 09:07:37;;;;;;;11.63;9.15;;;;;;;17.10;51.53;102477.41;1702062;84;21038;-53
2021/10/31 09:10:06;;;;;;;12.80;8.98;;;;;;;17.10;51.53;102476.09;1701783;84;21047;-52
2021/10/31 09:12:33;;;;;;;14.18;8.80;;;;;;;17.12;51.80;102467.71;1701315;84;21066;-53
2021/10/31 09:14:59;;;;;;;13.75;10.03;;;;;;;17.13;51.71;102469.87;1703490;84;20979;-53
2021/10/31 09:17:26;;;;;;;20.50;10.30;;;;;;;17.13;51.51;102460.22;1706705;84;21046;-53
2021/10/31 09:19:54;;;;;;;18.62;9.95;;;;;;;17.15;51.45;102458.42;1697542;84;21058;-53
2021/10/31 09:22:20;;;;;;;17.30;10.23;;;;;;;17.19;51.24;102460.08;1700929;84;21062;-52
2021/10/31 09:24:48;;;;;;;12.05;9.33;;;;;;;17.20;51.06;102456.57;1703309;84;21011;-53
2021/10/31 09:27:15;;;;;;;11.45;9.68;;;;;;;17.20;50.84;102449.12;1696981;84;22300;-54
2021/10/31 09:29:41;;;;;;;14.55;10.03;;;;;;;17.20;50.97;102449.99;1703470;84;21086;-54
2021/10/31 09:32:10;;;;;;;15.25;9.73;;;;;;;17.20;50.87;102448.67;1718385;82;21613;-54
2021/10/31 09:34:36;;;;;;;12.82;9.73;;;;;;;17.21;50.78;102455.66;1736308;82;21557;-54
2021/10/31 09:37:04;;;;;;;14.45;9.88;;;;;;;17.21;50.72;102454.81;1736215;82;21073;-53
2021/10/31 09:39:32;;;;;;;14.38;9.53;;;;;;;17.22;50.92;102448.63;1734795;82;21066;-52
2021/10/31 09:41:58;;;;;;;11.90;8.75;;;;;;;17.24;50.92;102447.70;1729475;82;21530;-51
2021/10/31 09:44:38;;;;;;;13.45;8.83;;;;;;;17.25;50.65;102449.42;1735780;82;20998;-54
2021/10/31 09:46:59;;;;;;;14.43;9.05;;;;;;;17.25;50.66;102437.58;1730472;82;21026;-52
2021/10/31 09:49:26;;;;;;;11.90;9.10;;;;;;;17.25;50.85;102436.27;1735652;82;21050;-53
2021/10/31 09:51:53;;;;;;;18.15;9.73;;;;;;;17.28;50.82;102435.34;1737570;81;20995;-53
2021/10/31 09:54:20;;;;;;;10.98;9.23;;;;;;;17.31;50.86;102440.55;1734421;82;21033;-53
2021/10/31 09:56:46;;;;;;;17.30;9.68;;;;;;;17.32;50.56;102440.50;1727983;82;21042;-53
2021/10/31 09:59:14;;;;;;;15.68;9.85;;;;;;;17.33;50.53;102436.95;1735749;81;21022;-53
2021/10/31 10:02:12;;;;;;;16.20;9.80;;;;;;;17.33;50.67;102436.95;1732021;82;21016;-54
2021/10/31 10:04:30;;;;;;;11.05;9.88;;;;;;;17.34;50.80;102443.09;1727566;82;20983;-48
2021/10/31 10:07:02;;;;;;;14.00;10.00;;;;;;;17.35;50.77;102441.73;1733307;82;21045;-53
2021/10/31 10:09:30;;;;;;;12.63;9.50;;;;;;;17.36;50.84;102436.03;1672760;85;21043;-53
2021/10/31 10:11:58;;;;;;;17.12;10.45;;;;;;;17.38;50.80;102432.47;1673221;85;21074;-53
2021/10/31 10:14:28;;;;;;;10.75;9.45;;;;;;;17.40;50.76;102429.79;1673423;85;21063;-53
2021/10/31 10:17:03;;;;;;;13.03;9.83;;;;;;;17.42;50.61;102430.17;1677995;85;21070;-52
2021/10/31 10:19:34;;;;;;;13.32;9.95;;;;;;;17.42;50.20;102421.41;1671065;85;21558;-53
2021/10/31 10:22:14;;;;;;;13.00;9.60;;;;;;;17.41;50.29;102421.88;1651710;86;21022;-53
2021/10/31 10:24:57;;;;;;;12.20;9.73;;;;;;;17.41;50.30;102421.88;1651899;86;21562;-52
2021/10/31 10:27:27;;;;;;;11.08;9.05;;;;;;;17.40;50.51;102414.88;1593948;88;21064;-52
2021/10/31 10:29:55;;;;;;;13.45;9.50;;;;;;;17.42;50.61;102407.80;1595500;88;21071;-52
2021/10/31 10:32:25;;;;;;;15.98;9.40;;;;;;;17.43;50.42;102404.29;1601876;87;21589;-55
2021/10/31 10:34:57;;;;;;;13.40;9.88;;;;;;;17.46;50.53;102400.25;1625586;87;21537;-55
2021/10/31 10:37:33;;;;;;;13.75;9.55;;;;;;;17.48;50.58;102401.52;1625098;88;21158;-52
2021/10/31 10:40:09;;;;;;;13.30;10.48;;;;;;;17.52;50.66;102396.19;1625084;88;21545;-52
2021/10/31 10:42:41;;;;;;;24.45;17.95;;;;;;;17.56;50.79;102396.97;1569979;91;21692;-52
2021/10/31 10:45:11;;;;;;;32.67;22.35;;;;;;;17.57;50.63;102402.22;1591571;89;21098;-55
2021/10/31 10:47:45;;;;;;;17.37;13.32;;;;;;;17.57;50.46;102394.32;1591616;89;21106;-52
2021/10/31 10:50:20;;;;;;;16.20;12.10;;;;;;;17.57;50.33;102396.95;1540761;93;21149;-52
2021/10/31 10:52:48;;;;;;;14.03;10.38;;;;;;;17.57;50.43;102389.05;1534764;93;21092;-55
2021/10/31 10:55:22;;;;;;;12.58;10.23;;;;;;;17.59;50.34;102391.20;1527968;93;21120;-53
2021/10/31 10:58:02;;;;;;;15.25;10.45;;;;;;;17.60;50.28;102388.96;1500551;96;21588;-53
2021/10/31 11:00:42;;;;;;;11.80;9.63;;;;;;;17.63;50.38;102388.03;1477439;97;21218;-53
2021/10/31 11:03:20;;;;;;;14.95;10.53;;;;;;;17.63;50.39;102381.45;1500891;96;21109;-50
2021/10/31 11:05:53;;;;;;;13.83;10.30;;;;;;;17.62;50.55;102384.52;1500426;96;21632;-53
2021/10/31 11:08:24;;;;;;;14.50;10.58;;;;;;;17.62;50.57;102376.63;1477670;97;21120;-53
2021/10/31 11:10:57;;;;;;;16.62;10.70;;;;;;;17.64;50.52;102374.82;1500398;96;21100;-54
2021/10/31 11:13:27;;;;;;;13.43;10.05;;;;;;;17.68;50.51;102373.84;1496036;95;21087;-53
2021/10/31 11:15:55;;;;;;;13.55;10.48;;;;;;;17.70;50.61;102375.98;1494582;96;21152;-53
2021/10/31 11:18:22;;;;;;;13.55;10.15;;;;;;;17.71;50.63;102375.09;1498898;95;21060;-54
2021/10/31 11:20:48;;;;;;;14.23;9.58;;;;;;;17.72;50.75;102376.80;1508113;95;21255;-52
2021/10/31 11:23:20;;;;;;;15.18;9.55;;;;;;;17.74;50.64;102374.99;1516295;92;21046;-52
2021/10/31 11:25:47;;;;;;;13.85;10.20;;;;;;;17.77;50.30;102370.98;1548324;93;21100;-51
2021/10/31 11:28:15;;;;;;;16.73;10.82;;;;;;;17.81;50.21;102367.36;1558555;92;21490;-53
2021/10/31 11:30:44;;;;;;;14.60;10.38;;;;;;;17.82;50.27;102369.11;1558530;92;21602;-53